JOHN2 Weather Reports


Display with metric or nautical units.
time (UTC)temp
F
wind
direction
speed
MPH
gust
MPH
rain 1hr
in
rain 24hr
in
rain mn
in
humidity
%
barometer
mb
20260505180054 79 360 8.0 19.0 0.00 0.00 0.00 36 1008.5
20260505175546 79 360 10.0 19.0 0.00 0.00 0.00 37 1008.5
20260505175046 78 360 7.0 21.0 0.00 0.00 0.00 39 1008.4
20260505174546 79 360 5.0 21.0 0.00 0.00 0.00 37 1008.6
20260505174045 79 360 11.0 20.0 0.00 0.00 0.00 37 1008.5
20260505173543 79 360 5.0 22.0 0.00 0.00 0.00 36 1008.6
20260505173048 78 360 8.0 22.0 0.00 0.00 0.00 38 1008.6
20260505172543 78 360 4.0 20.0 0.00 0.00 0.00 40 1008.6
20260505172042 78 360 5.0 20.0 0.00 0.00 0.00 41 1008.7
20260505171549 78 360 2.0 19.0 0.00 0.00 0.00 41 1008.8
20260505171042 79 360 6.0 13.0 0.00 0.00 0.00 39 1008.9
20260505170541 78 360 4.0 20.0 0.00 0.00 0.00 37 1008.7
20260505170041 78 360 6.0 20.0 0.00 0.00 0.00 37 1009.0
20260505165540 79 360 3.0 20.0 0.00 0.00 0.00 38 1009.0
20260505165040 78 360 6.0 21.0 0.00 0.00 0.00 38 1009.0
20260505164538 78 360 9.0 21.0 0.00 0.00 0.00 40 1009.1
20260505164038 78 360 6.0 22.0 0.00 0.00 0.00 41 1009.1
20260505163537 78 360 8.0 22.0 0.00 0.00 0.00 42 1009.3
20260505163036 78 360 7.0 21.0 0.00 0.00 0.00 41 1009.4
20260505162536 77 360 3.0 15.0 0.00 0.00 0.00 43 1009.4
20260505162036 77 360 4.0 15.0 0.00 0.00 0.00 42 1009.4
20260505161534 77 360 5.0 15.0 0.00 0.00 0.00 44 1009.5
20260505161034 77 360 5.0 16.0 0.00 0.00 0.00 44 1009.6
20260505160536 77 360 7.0 16.0 0.00 0.00 0.00 45 1009.5
20260505153029 76 274 2.0 13.0 0.00 0.00 0.00 48 1009.8
20260505152529 75 360 4.0 13.0 0.00 0.00 0.00 46 1009.8
20260505152028 75 360 4.0 14.0 0.00 0.00 0.00 47 1009.7
20260505151527 75 360 5.0 14.0 0.00 0.00 0.00 46 1009.7
20260505151027 75 360 6.0 14.0 0.00 0.00 0.00 47 1009.8
20260505150526 74 360 3.0 16.0 0.00 0.00 0.00 48 1009.8
20260505140514 70 360 3.0 11.0 0.00 0.00 0.00 54 1010.4
20260505125002 65 234 0.0 4.0 0.00 0.00 0.00 64 1010.9
20260505124503 64 202 0.0 6.0 0.00 0.00 0.00 65 1011.0
20260505124003 64 217 1.0 6.0 0.00 0.00 0.00 65 1011.0
20260505123501 64 180 0.0 0.0 0.00 0.00 0.00 66 1010.9
20260505123001 63 255 0.0 0.0 0.00 0.00 0.00 67 1011.0
20260505122501 63 255 0.0 0.0 0.00 0.00 0.00 69 1011.1
20260505122001 62 255 0.0 0.0 0.00 0.00 0.00 69 1011.0
20260505121629 62 255 0.0 0.0 0.00 0.00 0.00 70 1011.0
20260505121100 62 255 0.0 0.0 0.00 0.00 0.00 70 1011.0
20260505120559 61 255 0.0 0.0 0.00 0.00 0.00 71 1010.9
20260505120059 61 255 0.0 0.0 0.00 0.00 0.00 71 1010.8
20260505115559 61 255 0.0 0.0 0.00 0.00 0.00 72 1010.9
20260505115059 60 255 0.0 0.0 0.00 0.00 0.00 73 1010.9
20260505114600 60 255 0.0 0.0 0.00 0.00 0.00 72 1010.8
20260505114100 60 255 0.0 0.0 0.00 0.00 0.00 72 1010.8
20260505113559 60 255 0.0 0.0 0.00 0.00 0.00 72 1010.7
20260505113103 60 255 0.0 0.0 0.00 0.00 0.00 74 1010.6
20260505112557 59 255 0.0 0.0 0.00 0.00 0.00 75 1010.6
20260505112057 58 255 0.0 0.0 0.00 0.00 0.00 77 1010.5
20260505111557 57 255 0.0 0.0 0.00 0.00 0.00 78 1010.5
20260505111100 56 255 0.0 0.0 0.00 0.00 0.00 78 1010.5
20260505110557 56 255 0.0 0.0 0.00 0.00 0.00 79 1010.4
20260505102052 56 257 0.0 0.0 0.00 0.00 0.00 75 1010.0
20260505101554 56 252 0.0 0.0 0.00 0.00 0.00 77 1010.0
20260505101052 56 185 0.0 0.0 0.00 0.00 0.00 77 1010.0
20260505100554 55 184 0.0 0.0 0.00 0.00 0.00 76 1010.0
20260505100128 55 184 0.0 0.0 0.00 0.00 0.00 77 1009.8
20260505095556 55 184 0.0 0.0 0.00 0.00 0.00 78 1009.8
20260505095051 55 184 0.0 0.0 0.00 0.00 0.00 78 1009.8
20260505094551 55 184 0.0 0.0 0.00 0.00 0.00 77 1010.0
20260505094050 55 184 0.0 0.0 0.00 0.00 0.00 77 1010.0
20260505093549 55 184 0.0 0.0 0.00 0.00 0.00 77 1009.9
20260505093052 55 360 0.0 0.0 0.00 0.00 0.00 76 1009.9
20260505092552 56 267 0.0 0.0 0.00 0.00 0.00 75 1009.8
20260505092046 57 269 0.0 0.0 0.00 0.00 0.00 73 1009.8
20260505091607 57 269 0.0 0.0 0.00 0.00 0.00 72 1009.8
20260505091042 58 269 0.0 0.0 0.00 0.00 0.00 71 1009.7
20260505090541 59 269 0.0 0.0 0.00 0.00 0.00 70 1009.7
20260505090054 59 269 0.0 0.0 0.00 0.00 0.00 69 1009.6
20260505085539 60 242 0.0 0.0 0.00 0.00 0.00 69 1009.6
20260505085038 60 240 0.0 0.0 0.00 0.00 0.00 67 1009.4
20260505084537 61 236 0.0 0.0 0.00 0.00 0.00 66 1009.5
20260505084039 61 236 0.0 0.0 0.00 0.00 0.00 66 1009.6
20260505083534 61 236 0.0 0.0 0.00 0.00 0.00 66 1009.6
20260505083046 61 196 0.0 0.0 0.00 0.00 0.00 66 1009.6
20260505082535 61 188 0.0 0.0 0.00 0.00 0.00 66 1009.7
20260505082034 61 188 0.0 0.0 0.00 0.00 0.00 65 1009.6
20260505081539 62 188 0.0 0.0 0.00 0.00 0.00 65 1009.5
20260505081032 62 188 0.0 0.0 0.00 0.00 0.00 64 1009.5
20260505080536 62 188 0.0 0.0 0.00 0.00 0.00 64 1009.5
20260505080044 62 188 0.0 0.0 0.00 0.00 0.00 64 1009.4
20260505075533 62 189 0.0 0.0 0.00 0.00 0.00 63 1009.6
20260505075034 63 190 0.0 0.0 0.00 0.00 0.00 63 1009.4
20260505074529 63 193 0.0 3.0 0.00 0.00 0.00 63 1009.3
20260505074032 63 198 0.0 5.0 0.00 0.00 0.00 62 1009.4
20260505073528 63 198 0.0 7.0 0.00 0.00 0.00 62 1009.3
20260505073027 63 190 1.0 7.0 0.00 0.00 0.00 62 1009.2
20260505072528 63 183 1.0 7.0 0.00 0.00 0.00 62 1009.1
20260505072027 64 201 1.0 9.0 0.00 0.00 0.00 62 1009.1
20260505071536 64 198 1.0 8.0 0.00 0.00 0.00 61 1009.1
20260505071025 64 196 1.0 9.0 0.00 0.00 0.00 61 1009.1
20260505070525 64 202 2.0 9.0 0.00 0.00 0.00 61 1009.2
20260505070028 64 184 0.0 4.0 0.00 0.00 0.00 61 1009.2
20260505065523 64 186 0.0 5.0 0.00 0.00 0.00 60 1009.3
20260505065022 64 165 2.0 6.0 0.00 0.00 0.00 60 1009.4
20260505064524 64 360 1.0 5.0 0.00 0.00 0.00 60 1009.3
20260505064020 65 195 1.0 7.0 0.00 0.00 0.00 59 1009.4
20260505063520 65 218 1.0 8.0 0.00 0.00 0.00 59 1009.4
20260505063030 65 190 1.0 12.0 0.00 0.00 0.00 59 1009.4
20260505062520 65 228 2.0 12.0 0.00 0.00 0.00 59 1009.4
20260505062026 65 230 5.0 10.0 0.00 0.00 0.00 59 1009.5
20260505061524 65 201 2.0 9.0 0.00 0.00 0.00 59 1009.4
20260505061022 65 215 1.0 8.0 0.00 0.00 0.00 59 1009.4
20260505060519 65 236 0.0 8.0 0.00 0.00 0.00 59 1009.6
20260505060019 65 198 1.0 8.0 0.00 0.00 0.00 59 1009.6
20260505055518 65 360 3.0 7.0 0.00 0.00 0.00 59 1009.6
20260505055018 65 194 2.0 6.0 0.00 0.00 0.00 59 1009.5
20260505054518 65 206 3.0 6.0 0.00 0.00 0.00 58 1009.5
20260505054017 65 192 2.0 6.0 0.00 0.00 0.00 58 1009.5
20260505053516 65 201 3.0 6.0 0.00 0.00 0.00 58 1009.6
20260505053016 65 196 0.0 5.0 0.00 0.00 0.00 57 1009.6
20260505052515 65 360 0.0 5.0 0.00 0.00 0.00 57 1009.7
20260505052015 65 216 0.0 6.0 0.00 0.00 0.00 57 1009.6
20260505051526 65 229 1.0 8.0 0.00 0.00 0.00 57 1009.7
20260505051014 65 209 2.0 8.0 0.00 0.00 0.00 56 1009.6
20260505050518 66 209 0.0 6.0 0.00 0.00 0.00 56 1009.5
20260505041508 66 234 1.0 8.0 0.00 0.00 0.00 54 1009.3
20260505041008 66 207 1.0 9.0 0.00 0.00 0.00 53 1009.2
20260505040508 66 211 0.0 9.0 0.00 0.00 0.00 53 1009.2
20260505040008 66 360 2.0 9.0 0.00 0.00 0.00 53 1009.2
20260505035507 66 208 1.0 10.0 0.00 0.00 0.00 52 1009.3
20260505035007 66 219 0.0 10.0 0.00 0.00 0.00 52 1009.2
20260505034507 66 225 3.0 10.0 0.00 0.00 0.00 52 1009.3
20260505034007 66 211 0.0 5.0 0.00 0.00 0.00 52 1009.2
20260505033507 66 222 0.0 4.0 0.00 0.00 0.00 52 1009.2
20260505033007 65 225 0.0 3.0 0.00 0.00 0.00 52 1009.3
20260505032508 65 216 0.0 3.0 0.00 0.00 0.00 52 1009.3
20260505032008 65 209 0.0 1.0 0.00 0.00 0.00 52 1009.3
20260505031518 65 223 0.0 8.0 0.00 0.00 0.00 52 1009.3
20260505031006 65 234 0.0 8.0 0.00 0.00 0.00 52 1009.3
20260505030506 65 223 0.0 0.0 0.00 0.00 0.00 52 1009.3
20260505030006 65 252 0.0 0.0 0.00 0.00 0.00 51 1009.3
20260505025513 65 271 0.0 4.0 0.00 0.00 0.00 51 1009.3
20260505025007 65 263 0.0 4.0 0.00 0.00 0.00 51 1009.2
20260505024505 65 263 0.0 11.0 0.00 0.00 0.00 51 1009.1
20260505024006 65 360 5.0 11.0 0.00 0.00 0.00 51 1009.0
20260505023504 65 210 0.0 5.0 0.00 0.00 0.00 51 1009.1
20260505023005 65 360 1.0 5.0 0.00 0.00 0.00 51 1009.1
20260505022505 65 141 0.0 6.0 0.00 0.00 0.00 51 1009.0
20260505022006 65 138 0.0 6.0 0.00 0.00 0.00 51 1008.9
20260505021504 65 147 0.0 8.0 0.00 0.00 0.00 51 1009.0
20260505021004 66 360 0.0 9.0 0.00 0.00 0.00 50 1009.0
20260505020504 66 175 1.0 9.0 0.00 0.00 0.00 50 1009.0
20260505020004 66 170 0.0 7.0 0.00 0.00 0.00 50 1009.0
20260505015504 66 360 0.0 5.0 0.00 0.00 0.00 50 1009.1
20260505015005 66 142 1.0 5.0 0.00 0.00 0.00 50 1009.0
20260505014509 66 159 1.0 6.0 0.00 0.00 0.00 49 1009.0
20260505014004 66 128 2.0 8.0 0.00 0.00 0.00 49 1009.0
20260505013504 67 157 0.0 8.0 0.00 0.00 0.00 49 1009.0
20260505013003 67 173 0.0 8.0 0.00 0.00 0.00 48 1009.0
20260505012505 67 138 1.0 9.0 0.00 0.00 0.00 47 1009.1
20260505012003 67 211 2.0 8.0 0.00 0.00 0.00 47 1009.1
20260505011503 68 178 1.0 8.0 0.00 0.00 0.00 47 1009.1
20260505011002 68 138 1.0 8.0 0.00 0.00 0.00 46 1009.0
20260505010503 68 166 1.0 8.0 0.00 0.00 0.00 45 1008.9
20260505010006 69 360 1.0 5.0 0.00 0.00 0.00 45 1008.8
20260505005503 69 186 0.0 4.0 0.00 0.00 0.00 44 1008.7
20260505005003 69 198 0.0 4.0 0.00 0.00 0.00 44 1008.6
20260505004502 69 161 0.0 1.0 0.00 0.00 0.00 44 1008.5
20260505004004 70 168 0.0 3.0 0.00 0.00 0.00 43 1008.5
20260505003501 70 174 0.0 5.0 0.00 0.00 0.00 43 1008.5
20260505003001 70 169 0.0 5.0 0.00 0.00 0.00 42 1008.5
20260505002502 70 187 0.0 6.0 0.00 0.00 0.00 42 1008.5
20260505002002 70 210 0.0 6.0 0.00 0.00 0.00 42 1008.5
20260505001502 71 194 1.0 9.0 0.00 0.00 0.00 41 1008.4
20260505001003 71 176 2.0 9.0 0.00 0.00 0.00 41 1008.3
20260505000501 71 187 1.0 6.0 0.00 0.00 0.00 41 1008.4
20260505000001 71 180 1.0 10.0 0.00 0.00 0.00 41 1008.4
20260504235502 71 225 3.0 13.0 0.00 0.00 0.00 41 1008.3
20260504235002 71 202 4.0 13.0 0.00 0.00 0.00 41 1008.3
20260504234500 71 236 3.0 12.0 0.00 0.00 0.00 41 1008.3
20260504234001 71 360 2.0 12.0 0.00 0.00 0.00 41 1008.1
20260504233600 71 194 5.0 12.0 0.00 0.00 0.00 41 1008.1
20260504233111 71 198 3.0 10.0 0.00 0.00 0.00 41 1008.1
20260504232600 72 213 2.0 9.0 0.00 0.00 0.00 41 1008.1
20260504232100 72 210 3.0 13.0 0.00 0.00 0.00 41 1008.2
20260504231559 72 171 5.0 10.0 0.00 0.00 0.00 41 1008.1
20260504231058 72 184 2.0 10.0 0.00 0.00 0.00 41 1008.2
20260504230558 72 360 4.0 9.0 0.00 0.00 0.00 40 1008.2
20260504230115 72 360 2.0 7.0 0.00 0.00 0.00 41 1008.3
20260504225558 72 249 1.0 9.0 0.00 0.00 0.00 41 1008.3
20260504225101 72 360 1.0 13.0 0.00 0.00 0.00 41 1008.3
20260504224621 72 360 5.0 13.0 0.00 0.00 0.00 40 1008.3
20260504224057 72 360 3.0 10.0 0.00 0.00 0.00 41 1008.3
20260504223556 72 215 4.0 13.0 0.00 0.00 0.00 40 1008.3
20260504223058 72 202 3.0 18.0 0.00 0.00 0.00 40 1008.4
20260504222556 72 195 5.0 15.0 0.00 0.00 0.00 40 1008.4
20260504222055 72 209 3.0 15.0 0.00 0.00 0.00 39 1008.4
20260504221555 72 205 3.0 16.0 0.00 0.00 0.00 39 1008.4
20260504221055 73 199 5.0 15.0 0.00 0.00 0.00 39 1008.4
20260504220555 73 360 2.0 15.0 0.00 0.00 0.00 40 1008.5
20260504220058 73 360 2.0 11.0 0.00 0.00 0.00 40 1008.5
20260504215554 73 360 3.0 10.0 0.00 0.00 0.00 39 1008.4
20260504215055 72 216 2.0 11.0 0.00 0.00 0.00 40 1008.4
20260504214553 72 219 5.0 21.0 0.00 0.00 0.00 39 1008.3
20260504214055 72 196 11.0 20.0 0.00 0.00 0.00 39 1008.5
20260504213553 72 172 6.0 13.0 0.00 0.00 0.00 39 1008.4
20260504213100 72 186 2.0 13.0 0.00 0.00 0.00 39 1008.5
20260504212555 72 360 7.0 14.0 0.00 0.00 0.00 39 1008.4
20260504212055 72 360 5.0 16.0 0.00 0.00 0.00 39 1008.4
20260504211558 72 205 4.0 16.0 0.00 0.00 0.00 39 1008.4
20260504211053 72 360 3.0 16.0 0.00 0.00 0.00 39 1008.5
20260504210554 72 360 3.0 12.0 0.00 0.00 0.00 39 1008.4
20260504210101 72 360 1.0 10.0 0.00 0.00 0.00 40 1008.5
20260504205551 72 214 2.0 15.0 0.00 0.00 0.00 40 1008.4
20260504205052 72 190 3.0 15.0 0.00 0.00 0.00 39 1008.5
20260504204554 72 360 2.0 13.0 0.00 0.00 0.00 38 1008.5
20260504204052 72 360 4.0 16.0 0.00 0.00 0.00 38 1008.5
20260504203550 72 360 2.0 16.0 0.00 0.00 0.00 39 1008.6
20260504203048 72 261 2.0 13.0 0.00 0.00 0.00 41 1008.6
20260504202548 72 360 5.0 13.0 0.00 0.00 0.00 39 1008.6
20260504202049 72 360 2.0 15.0 0.00 0.00 0.00 39 1008.7
20260504201549 71 360 5.0 13.0 0.00 0.00 0.00 40 1008.9
20260504201046 71 222 5.0 15.0 0.00 0.00 0.00 39 1009.0
20260504200545 71 189 2.0 16.0 0.00 0.00 0.00 40 1009.0
20260504200055 72 360 3.0 11.0 0.00 0.00 0.00 38 1009.1
20260504195544 72 360 2.0 12.0 0.00 0.00 0.00 40 1009.2
20260504195043 71 179 1.0 12.0 0.00 0.00 0.00 41 1009.2
20260504194543 71 237 4.0 14.0 0.00 0.00 0.00 40 1009.2
20260504194041 71 360 3.0 14.0 0.00 0.00 0.00 40 1009.5
20260504193541 71 360 3.0 12.0 0.00 0.00 0.00 39 1009.5
20260504193043 71 360 2.0 11.0 0.00 0.00 0.00 40 1009.6
20260504192538 71 238 2.0 22.0 0.00 0.00 0.00 39 1009.7
20260504192038 71 360 5.0 19.0 0.00 0.00 0.00 39 1009.9
20260504191539 71 360 6.0 18.0 0.00 0.00 0.00 40 1009.9
20260504191039 71 360 1.0 16.0 0.00 0.00 0.00 41 1009.8
20260504190537 71 253 8.0 16.0 0.00 0.00 0.00 39 1010.0
20260504190035 70 228 3.0 15.0 0.00 0.00 0.00 40 1010.0
20260504185534 70 221 4.0 18.0 0.00 0.00 0.00 40 1010.1
20260504185033 70 206 7.0 18.0 0.00 0.00 0.00 40 1010.3
20260504184538 70 360 1.0 21.0 0.00 0.00 0.00 40 1010.3
20260504184035 69 260 9.0 21.0 0.00 0.00 0.00 40 1010.5
20260504183532 69 214 6.0 18.0 0.00 0.00 0.00 40 1010.5
20260504183036 69 209 4.0 14.0 0.00 0.00 0.00 41 1010.5
20260504182529 69 360 1.0 10.0 0.00 0.00 0.00 40 1010.6
20260504182029 69 360 2.0 12.0 0.00 0.00 0.00 41 1010.6
20260504181531 69 274 5.0 12.0 0.00 0.00 0.00 42 1010.7
20260504181028 69 360 2.0 16.0 0.00 0.00 0.00 39 1010.8
20260504180527 69 196 2.0 16.0 0.00 0.00 0.00 39 1010.8